Time;durP1;ratioP1;P1;durP2;ratioP2;P2;SDS_P1;SDS_P2;PMS_P1;PMS_P2;Temp;Humidity;BMP_temperature;BMP_pressure;BME280_temperature;BME280_humidity;BME280_pressure;Samples;Min_cycle;Max_cycle;Signal;HPM_P1;HPM_P2
2022/10/12 00:02:14;;;;;;;8.45;1.95;;;;;;;5.09;100.00;101754.63;5188125;28;20503;-72
2022/10/12 00:04:44;;;;;;;6.05;1.70;;;;;;;5.36;100.00;101766.84;5187018;28;20029;-72
2022/10/12 00:07:14;;;;;;;11.40;1.80;;;;;;;5.30;100.00;101765.09;5179843;28;20022;-72
2022/10/12 00:09:44;;;;;;;7.30;1.67;;;;;;;5.43;100.00;101764.28;5181254;28;20129;-72
2022/10/12 00:12:15;;;;;;;6.25;1.80;;;;;;;5.21;100.00;101766.78;5180127;28;20029;-73
2022/10/12 00:14:45;;;;;;;5.88;1.80;;;;;;;5.00;100.00;101764.94;5180738;28;20121;-72
2022/10/12 00:17:16;;;;;;;7.47;2.10;;;;;;;5.02;100.00;101765.84;5175797;28;20029;-71
2022/10/12 00:19:46;;;;;;;5.05;1.30;;;;;;;4.98;100.00;101764.06;5180281;28;20438;-72
2022/10/12 00:22:16;;;;;;;9.15;1.60;;;;;;;4.98;100.00;101771.81;5180037;28;20080;-72
2022/10/12 00:24:47;;;;;;;5.07;1.98;;;;;;;5.01;100.00;101773.59;5180518;28;20061;-72
2022/10/12 00:27:17;;;;;;;6.60;1.30;;;;;;;5.31;100.00;101760.78;5179267;28;20021;-72
2022/10/12 00:29:47;;;;;;;5.53;1.40;;;;;;;4.95;100.00;101766.63;5180252;28;20045;-72
2022/10/12 00:32:18;;;;;;;3.33;1.20;;;;;;;4.94;100.00;101761.47;5173542;28;20022;-73
2022/10/12 00:34:48;;;;;;;4.00;1.42;;;;;;;4.92;100.00;101766.63;5174377;28;20383;-72
2022/10/12 00:37:18;;;;;;;4.40;1.10;;;;;;;4.87;100.00;101772.63;5179849;28;20034;-72
2022/10/12 00:39:49;;;;;;;6.78;1.20;;;;;;;4.57;100.00;101773.28;5179971;28;20022;-72
2022/10/12 00:42:19;;;;;;;3.42;1.10;;;;;;;4.75;100.00;101768.22;5179714;28;20041;-72
2022/10/12 00:44:51;;;;;;;6.38;1.45;;;;;;;4.63;100.00;101773.31;5179833;28;20133;-72
2022/10/12 00:47:31;;;;;;;5.25;1.40;;;;;;;4.50;100.00;101781.81;5179489;28;20025;-72
2022/10/12 00:50:07;;;;;;;7.30;1.45;;;;;;;4.54;100.00;101778.44;5179601;28;20487;-72
2022/10/12 00:52:48;;;;;;;3.95;1.30;;;;;;;4.44;100.00;101784.38;5213605;23;20095;-77
2022/10/12 00:55:20;;;;;;;2.58;1.05;;;;;;;4.42;100.00;101773.16;5225808;28;20102;-77
2022/10/12 00:57:52;;;;;;;5.85;1.27;;;;;;;4.53;100.00;101783.59;5219618;28;20444;-78
2022/10/12 01:00:23;;;;;;;4.80;1.48;;;;;;;4.38;100.00;101779.16;5198096;28;20032;-77
2022/10/12 01:02:54;;;;;;;6.03;1.70;;;;;;;4.38;100.00;101779.16;5212605;28;20025;-77
2022/10/12 01:05:24;;;;;;;8.05;1.70;;;;;;;4.42;100.00;101774.84;5204480;28;20390;-77
2022/10/12 01:07:54;;;;;;;8.75;1.73;;;;;;;4.50;100.00;101781.81;5201352;28;20029;-77
2022/10/12 01:10:25;;;;;;;7.03;1.75;;;;;;;4.57;100.00;101781.03;5199792;28;20036;-77
2022/10/12 01:12:56;;;;;;;7.22;1.65;;;;;;;4.70;100.00;101788.06;5199954;28;20101;-77
2022/10/12 01:15:32;;;;;;;7.80;1.60;;;;;;;4.80;100.00;101784.66;5193768;28;20033;-78
2022/10/12 01:18:20;;;;;;;6.45;1.80;;;;;;;4.70;100.00;101785.47;5195189;28;20220;-78
2022/10/12 01:21:17;;;;;;;8.02;2.10;;;;;;;4.64;100.00;101780.22;5197213;28;20049;-77
2022/10/12 01:24:02;;;;;;;8.35;1.90;;;;;;;4.76;100.00;101775.13;5195850;28;20438;-77
2022/10/12 01:26:40;;;;;;;8.73;2.00;;;;;;;4.87;100.00;101775.22;5181519;28;20033;-77
2022/10/12 01:29:35;;;;;;;4.78;1.70;;;;;;;4.65;100.00;101776.78;5199964;28;20037;-77
2022/10/12 01:32:20;;;;;;;6.50;1.83;;;;;;;4.75;100.00;101773.41;5201498;28;20059;-78
2022/10/12 01:35:15;;;;;;;8.38;1.88;;;;;;;4.68;100.00;101776.81;5200221;28;20055;-77
2022/10/12 01:37:51;;;;;;;7.90;2.08;;;;;;;4.88;100.00;101772.66;5179356;28;20143;-78
2022/10/12 01:40:41;;;;;;;12.23;3.35;;;;;;;4.84;100.00;101776.03;5198667;28;20112;-77
2022/10/12 01:43:11;;;;;;;18.30;5.65;;;;;;;5.04;100.00;101769.28;5204114;28;20375;-78
2022/10/12 01:45:41;;;;;;;19.58;5.93;;;;;;;5.13;100.00;101763.28;5204264;28;20025;-77
2022/10/12 01:48:12;;;;;;;10.88;3.90;;;;;;;4.83;100.00;101760.50;5203057;28;20036;-77
2022/10/12 01:50:49;;;;;;;4.38;1.35;;;;;;;4.53;100.00;101768.06;5204240;28;20444;-78
2022/10/12 01:53:35;;;;;;;3.40;1.50;;;;;;;4.30;100.00;101759.25;5200476;28;20548;-77
2022/10/12 01:56:16;;;;;;;6.95;1.95;;;;;;;4.51;100.00;101757.72;5203668;28;20391;-77
2022/10/12 01:59:16;;;;;;;4.70;1.50;;;;;;;4.34;100.00;101764.47;5199091;28;20438;-78
2022/10/12 02:02:26;;;;;;;6.20;1.60;;;;;;;4.20;100.00;101753.13;5201205;28;20115;-77
2022/10/12 02:05:08;;;;;;;6.65;1.95;;;;;;;4.08;100.00;101749.53;5168926;28;20045;-77
2022/10/12 02:07:44;;;;;;;5.88;1.75;;;;;;;3.95;100.00;101745.97;5205408;28;20534;-77
2022/10/12 02:10:27;;;;;;;3.38;1.40;;;;;;;4.05;100.00;101750.41;5203306;28;20064;-77
2022/10/12 02:13:01;;;;;;;3.90;1.40;;;;;;;4.11;100.00;101742.69;5183293;28;20244;-76
2022/10/12 02:15:33;;;;;;;7.28;1.70;;;;;;;4.14;100.00;101750.47;5202720;28;20085;-78
2022/10/12 02:18:05;;;;;;;7.00;1.50;;;;;;;4.37;100.00;101743.78;5202926;28;20091;-77
2022/10/12 02:20:38;;;;;;;6.20;1.52;;;;;;;4.42;100.00;101736.03;5202813;28;20026;-78
2022/10/12 02:23:09;;;;;;;3.78;1.27;;;;;;;4.33;100.00;101742.00;5202851;28;20438;-77
2022/10/12 02:25:40;;;;;;;7.25;1.50;;;;;;;4.14;100.00;101737.53;5203414;28;20033;-78
2022/10/12 02:28:15;;;;;;;3.97;1.33;;;;;;;4.46;100.00;101732.66;5202373;28;20029;-77
2022/10/12 02:31:06;;;;;;;7.47;1.50;;;;;;;4.39;100.00;101741.19;5199460;28;20064;-77
2022/10/12 02:33:47;;;;;;;6.75;1.50;;;;;;;4.36;100.00;101739.47;5206049;28;20029;-78
2022/10/12 02:36:30;;;;;;;5.47;1.30;;;;;;;4.15;100.00;101739.25;5206822;28;20035;-78
2022/10/12 02:39:07;;;;;;;9.15;1.40;;;;;;;4.08;100.00;101731.44;5201313;28;20395;-77
2022/10/12 02:41:45;;;;;;;5.53;1.35;;;;;;;4.31;100.00;101738.53;5202609;28;20465;-77
2022/10/12 02:44:22;;;;;;;8.52;1.90;;;;;;;4.22;100.00;101733.31;5198694;28;20433;-78
2022/10/12 02:46:54;;;;;;;8.63;1.65;;;;;;;4.16;100.00;101732.38;5202663;28;20182;-77
2022/10/12 02:49:27;;;;;;;4.70;1.25;;;;;;;4.35;100.00;101731.69;5202828;28;20029;-78
2022/10/12 02:51:58;;;;;;;4.68;1.30;;;;;;;4.35;100.00;101726.50;5202674;28;20025;-78
2022/10/12 02:54:30;;;;;;;4.78;1.35;;;;;;;4.47;100.00;101724.03;5202402;28;20515;-78
2022/10/12 02:57:00;;;;;;;8.07;1.33;;;;;;;4.28;100.00;101728.19;5202235;28;20126;-78
2022/10/12 02:59:31;;;;;;;6.53;1.40;;;;;;;4.24;100.00;101720.38;5202330;28;20276;-77
2022/10/12 03:02:01;;;;;;;9.32;1.65;;;;;;;4.25;100.00;101719.50;5200788;28;20048;-78
2022/10/12 03:04:31;;;;;;;4.95;1.00;;;;;;;4.25;100.00;101717.81;5203062;28;20167;-78
2022/10/12 03:07:02;;;;;;;5.93;1.50;;;;;;;4.22;100.00;101714.31;5201701;28;20384;-77
2022/10/12 03:09:32;;;;;;;3.63;1.30;;;;;;;4.19;100.00;101720.34;5202497;28;20033;-78
2022/10/12 03:12:03;;;;;;;5.20;1.35;;;;;;;4.13;100.00;101722.88;5202276;28;20138;-77
2022/10/12 03:14:34;;;;;;;7.97;1.48;;;;;;;3.94;100.00;101715.81;5201233;28;20025;-76
2022/10/12 03:17:04;;;;;;;5.22;1.40;;;;;;;3.88;100.00;101726.09;5201585;28;20032;-78
2022/10/12 03:19:34;;;;;;;4.40;1.50;;;;;;;3.81;100.00;101719.13;5202285;28;20029;-78
2022/10/12 03:22:05;;;;;;;4.82;1.27;;;;;;;3.83;100.00;101716.56;5202213;28;20430;-78
2022/10/12 03:24:35;;;;;;;8.38;1.52;;;;;;;3.87;100.00;101720.91;5202689;28;20042;-77
2022/10/12 03:27:05;;;;;;;5.75;1.17;;;;;;;3.83;100.00;101716.56;5201658;28;20052;-78
2022/10/12 03:29:36;;;;;;;5.35;1.40;;;;;;;3.87;100.00;101719.19;5201606;28;20022;-77
2022/10/12 03:32:06;;;;;;;5.00;1.40;;;;;;;3.85;100.00;101720.03;5185926;28;20028;-77
2022/10/12 03:34:36;;;;;;;6.13;1.52;;;;;;;3.84;100.00;101714.00;5204512;28;20468;-77
2022/10/12 03:37:06;;;;;;;8.35;1.60;;;;;;;3.86;100.00;101712.28;5202052;28;20033;-78
2022/10/12 03:39:37;;;;;;;6.95;1.50;;;;;;;3.88;100.00;101710.59;5200832;28;20048;-77
2022/10/12 03:42:07;;;;;;;5.63;1.48;;;;;;;3.93;100.00;101703.72;5201183;28;20067;-78
2022/10/12 03:44:37;;;;;;;6.85;1.75;;;;;;;3.99;100.00;101705.50;5201843;28;20022;-78
2022/10/12 03:47:08;;;;;;;5.30;1.42;;;;;;;3.91;100.00;101705.44;5201232;28;20037;-78
2022/10/12 03:49:38;;;;;;;4.88;1.60;;;;;;;3.91;100.00;101700.25;5200832;28;20048;-78
2022/10/12 03:52:08;;;;;;;9.98;1.70;;;;;;;3.85;100.00;101707.97;5201342;28;20033;-78
2022/10/12 03:54:39;;;;;;;8.32;1.70;;;;;;;3.93;100.00;101703.72;5201617;28;20439;-78
2022/10/12 03:57:09;;;;;;;5.90;1.40;;;;;;;4.00;100.00;101700.38;5200133;28;20079;-77
2022/10/12 03:59:39;;;;;;;12.82;1.88;;;;;;;4.02;100.00;101703.81;5198626;28;20041;-77
2022/10/12 04:02:10;;;;;;;10.18;1.77;;;;;;;3.90;100.00;101702.81;5201962;28;20029;-77
2022/10/12 04:04:40;;;;;;;6.68;1.33;;;;;;;3.86;100.00;101704.53;5200668;28;20038;-78
2022/10/12 04:07:10;;;;;;;6.60;1.70;;;;;;;3.81;100.00;101705.34;5200686;28;20029;-77
2022/10/12 04:09:40;;;;;;;8.70;1.73;;;;;;;3.78;100.00;101700.16;5201147;28;20021;-78
2022/10/12 04:12:11;;;;;;;8.35;1.75;;;;;;;3.70;100.00;101705.25;5200874;28;20029;-77
2022/10/12 04:14:41;;;;;;;10.05;1.67;;;;;;;3.67;100.00;101694.00;5201082;28;20029;-78
2022/10/12 04:17:14;;;;;;;7.97;1.48;;;;;;;3.50;100.00;101692.09;5198149;28;20021;-77
2022/10/12 04:19:44;;;;;;;6.63;1.70;;;;;;;3.67;100.00;101700.03;5201348;28;20037;-78
2022/10/12 04:22:15;;;;;;;9.00;1.88;;;;;;;3.70;100.00;101697.47;5208323;28;20411;-77
2022/10/12 04:24:45;;;;;;;6.53;1.73;;;;;;;3.75;100.00;101700.13;5200804;28;20036;-77
2022/10/12 04:27:15;;;;;;;6.43;1.55;;;;;;;3.86;100.00;101699.38;5180583;28;20057;-77
2022/10/12 04:29:46;;;;;;;5.53;1.55;;;;;;;3.66;100.00;101695.72;5200350;28;20025;-78
2022/10/12 04:32:16;;;;;;;5.78;1.40;;;;;;;3.78;100.00;101688.06;5186271;28;20090;-78
2022/10/12 04:34:46;;;;;;;7.82;1.88;;;;;;;3.67;100.00;101700.03;5201270;28;20032;-77
2022/10/12 04:37:17;;;;;;;6.88;1.70;;;;;;;3.72;100.00;101697.47;5199558;28;20025;-77
2022/10/12 04:39:47;;;;;;;6.43;1.73;;;;;;;3.70;100.00;101699.19;5199071;28;20025;-77
2022/10/12 04:42:17;;;;;;;8.10;2.45;;;;;;;3.74;100.00;101700.94;5200101;28;20044;-77
2022/10/12 04:44:48;;;;;;;9.93;1.73;;;;;;;3.66;100.00;101693.13;5200500;28;20124;-77
2022/10/12 04:47:18;;;;;;;9.52;2.13;;;;;;;3.75;100.00;101697.53;5199757;28;20025;-77
2022/10/12 04:49:48;;;;;;;7.43;1.80;;;;;;;3.66;100.00;101703.47;5200193;28;20052;-77
2022/10/12 04:52:18;;;;;;;7.05;1.95;;;;;;;3.62;100.00;101695.66;5200053;28;20033;-78
2022/10/12 04:54:49;;;;;;;7.45;2.13;;;;;;;3.65;100.00;101699.13;5199819;28;20096;-77
2022/10/12 04:57:19;;;;;;;8.05;2.00;;;;;;;3.64;100.00;101699.97;5200120;28;20071;-78
2022/10/12 04:59:49;;;;;;;10.07;1.98;;;;;;;3.47;100.00;101699.78;5199333;28;20034;-77
2022/10/12 05:02:20;;;;;;;7.07;1.90;;;;;;;3.42;100.00;101696.31;5203386;28;20029;-78
2022/10/12 05:04:51;;;;;;;10.15;1.90;;;;;;;3.34;100.00;101696.22;5200538;28;20124;-77
2022/10/12 05:07:21;;;;;;;12.32;2.25;;;;;;;3.40;100.00;101700.59;5199671;28;20040;-77
2022/10/12 05:09:51;;;;;;;11.93;1.90;;;;;;;3.44;100.00;101690.31;5199913;28;20025;-78
2022/10/12 05:12:21;;;;;;;5.53;1.75;;;;;;;3.47;100.00;101694.63;5182331;28;20025;-77
2022/10/12 05:14:52;;;;;;;8.90;1.88;;;;;;;3.51;100.00;101693.84;5199763;28;20028;-78
2022/10/12 05:17:22;;;;;;;7.50;1.50;;;;;;;3.78;100.00;101693.25;5200209;28;20034;-77
2022/10/12 05:19:52;;;;;;;5.38;1.88;;;;;;;3.61;100.00;101699.13;5199002;28;20494;-78
2022/10/12 05:22:23;;;;;;;6.90;1.75;;;;;;;3.60;100.00;101693.06;5199461;28;20040;-77
2022/10/12 05:24:53;;;;;;;6.00;1.70;;;;;;;3.60;100.00;101692.22;5199569;28;20032;-78
2022/10/12 05:27:23;;;;;;;9.13;1.73;;;;;;;3.70;100.00;101688.84;5200931;28;20033;-77
2022/10/12 05:29:54;;;;;;;6.82;1.65;;;;;;;3.60;100.00;101682.72;5203422;28;20029;-77
2022/10/12 05:32:24;;;;;;;7.65;1.90;;;;;;;3.56;100.00;101687.84;5203043;28;20086;-77
2022/10/12 05:34:54;;;;;;;7.18;2.08;;;;;;;3.71;100.00;101683.69;5201223;28;20029;-78
2022/10/12 05:37:25;;;;;;;7.38;2.13;;;;;;;3.57;100.00;101680.97;5199202;28;20029;-78
2022/10/12 05:39:55;;;;;;;7.15;2.10;;;;;;;3.58;100.00;101681.84;5199086;28;20056;-77
2022/10/12 05:42:25;;;;;;;9.98;2.25;;;;;;;3.52;100.00;101685.22;5199089;28;20049;-77
2022/10/12 05:44:55;;;;;;;8.38;1.85;;;;;;;3.57;100.00;101678.38;5199610;28;20033;-77
2022/10/12 05:47:26;;;;;;;6.93;1.90;;;;;;;3.58;100.00;101678.41;5198712;28;20117;-77
2022/10/12 05:49:56;;;;;;;10.98;1.90;;;;;;;3.55;100.00;101674.91;5196804;28;20112;-76
2022/10/12 05:52:26;;;;;;;8.88;2.15;;;;;;;3.56;100.00;101679.22;5196379;28;20487;-77
2022/10/12 05:54:57;;;;;;;7.68;2.08;;;;;;;3.78;100.00;101685.47;5196638;28;20025;-77
2022/10/12 05:57:27;;;;;;;7.15;1.95;;;;;;;3.91;100.00;101687.34;5197938;28;20028;-77
2022/10/12 05:59:57;;;;;;;12.48;2.35;;;;;;;4.02;100.00;101688.31;5198723;28;20454;-77
2022/10/12 06:02:28;;;;;;;10.75;2.22;;;;;;;4.00;100.00;101683.97;5183591;28;20257;-77
2022/10/12 06:04:58;;;;;;;9.13;2.40;;;;;;;4.04;100.00;101685.72;5179948;28;20494;-77
2022/10/12 06:07:28;;;;;;;10.20;2.13;;;;;;;3.99;100.00;101687.41;5198639;28;20025;-77
2022/10/12 06:09:59;;;;;;;9.73;2.08;;;;;;;4.01;100.00;101684.00;5198565;28;20465;-77
2022/10/12 06:12:29;;;;;;;7.80;1.90;;;;;;;4.06;100.00;101684.00;5198086;28;20521;-77
2022/10/12 06:14:59;;;;;;;7.38;1.98;;;;;;;4.12;100.00;101669.41;5199395;28;20061;-77
2022/10/12 06:17:30;;;;;;;7.82;2.03;;;;;;;4.30;100.00;101679.88;5198474;28;20037;-77
2022/10/12 06:20:00;;;;;;;10.20;2.30;;;;;;;4.31;100.00;101679.03;5199328;28;20500;-78
2022/10/12 06:22:30;;;;;;;12.57;2.40;;;;;;;4.38;100.00;101675.66;5199176;28;20092;-78
2022/10/12 06:25:00;;;;;;;12.40;2.70;;;;;;;4.49;100.00;101686.06;5199079;28;20032;-77
2022/10/12 06:27:31;;;;;;;8.30;2.33;;;;;;;4.49;100.00;101673.97;5202575;28;20441;-77
2022/10/12 06:30:01;;;;;;;13.35;2.78;;;;;;;4.64;100.00;101676.66;5184927;28;20045;-77
2022/10/12 06:32:32;;;;;;;11.23;2.67;;;;;;;4.48;100.00;101674.84;5206382;28;20471;-77
2022/10/12 06:35:02;;;;;;;12.52;2.65;;;;;;;4.64;100.00;101668.91;5204366;28;20083;-77
2022/10/12 06:37:33;;;;;;;9.10;2.70;;;;;;;4.71;100.00;101670.69;5201891;28;20407;-77
2022/10/12 06:40:04;;;;;;;11.82;3.38;;;;;;;4.88;100.00;101666.47;5203338;28;20022;-77
2022/10/12 06:42:34;;;;;;;13.63;3.40;;;;;;;5.00;100.00;101671.69;5206621;28;20037;-77
2022/10/12 06:45:05;;;;;;;13.50;3.53;;;;;;;5.15;100.00;101671.75;5202153;28;20034;-77
2022/10/12 06:47:36;;;;;;;13.02;3.13;;;;;;;5.24;100.00;101666.59;5202099;28;20497;-77
2022/10/12 06:50:08;;;;;;;9.82;2.83;;;;;;;5.37;100.00;101670.97;5201009;28;20523;-77
2022/10/12 06:52:38;;;;;;;10.68;3.47;;;;;;;5.57;100.00;101670.13;5227580;22;20057;-72
2022/10/12 06:55:09;;;;;;;12.52;3.65;;;;;;;5.67;100.00;101671.03;5220954;28;20044;-72
2022/10/12 06:57:39;;;;;;;12.77;3.38;;;;;;;5.61;100.00;101671.88;5220863;28;20421;-72
2022/10/12 07:00:11;;;;;;;12.88;3.53;;;;;;;5.73;100.00;101671.91;5222665;28;20037;-72
2022/10/12 07:02:41;;;;;;;11.63;4.10;;;;;;;5.72;100.00;101677.94;5222838;28;20051;-72
2022/10/12 07:05:11;;;;;;;15.23;4.50;;;;;;;5.73;100.00;101679.69;5221934;28;20033;-72
2022/10/12 07:07:42;;;;;;;15.48;4.00;;;;;;;5.71;100.00;101676.22;5221161;28;20507;-72
2022/10/12 07:10:12;;;;;;;13.52;3.72;;;;;;;5.63;100.00;101677.06;5222158;28;20300;-71
2022/10/12 07:12:42;;;;;;;13.73;3.78;;;;;;;5.72;100.00;101671.91;5204702;28;20090;-72
2022/10/12 07:15:13;;;;;;;10.40;3.30;;;;;;;6.03;100.00;101658.13;5222626;28;21411;-73
2022/10/12 07:17:43;;;;;;;12.18;3.80;;;;;;;6.65;100.00;101666.72;5221444;28;20028;-72
2022/10/12 07:20:13;;;;;;;12.63;3.63;;;;;;;7.22;100.00;101658.69;5222547;28;20167;-72
2022/10/12 07:22:44;;;;;;;13.90;3.20;;;;;;;7.79;100.00;101660.09;5220968;28;20504;-72
2022/10/12 07:25:14;;;;;;;12.60;2.83;;;;;;;8.54;98.21;101656.88;5220986;28;20482;-72
2022/10/12 07:27:48;;;;;;;7.95;2.72;;;;;;;10.64;86.62;101644.25;5220636;28;20040;-72
2022/10/12 07:30:18;;;;;;;10.93;2.53;;;;;;;11.67;81.27;101646.44;5218293;28;20786;-73
2022/10/12 07:32:48;;;;;;;10.32;2.60;;;;;;;12.45;78.50;101645.34;5221770;28;20024;-73
2022/10/12 07:35:18;;;;;;;10.73;2.63;;;;;;;13.77;77.00;101637.09;5221408;28;20494;-72
2022/10/12 07:37:49;;;;;;;10.20;2.40;;;;;;;15.11;70.83;101636.81;5220468;28;20128;-73
2022/10/12 07:40:19;;;;;;;13.55;2.80;;;;;;;15.82;68.62;101634.94;5221451;28;20028;-72
2022/10/12 07:42:49;;;;;;;10.50;3.25;;;;;;;15.68;68.03;101634.59;5203208;28;20053;-73
2022/10/12 07:45:22;;;;;;;7.10;2.30;;;;;;;15.05;71.51;101639.66;5222258;28;20069;-73
2022/10/12 07:47:53;;;;;;;10.32;2.67;;;;;;;16.76;66.92;101626.53;5221736;28;20056;-73
2022/10/12 07:50:24;;;;;;;6.63;2.50;;;;;;;17.15;65.21;101631.75;5221374;28;20499;-72
2022/10/12 07:52:54;;;;;;;6.72;2.10;;;;;;;17.03;65.18;101623.53;5221655;28;20467;-73
2022/10/12 07:55:25;;;;;;;8.27;2.00;;;;;;;16.38;67.10;101636.09;5221575;28;20065;-73
2022/10/12 07:57:55;;;;;;;12.15;2.45;;;;;;;15.01;73.00;101632.78;5221517;28;20506;-73
2022/10/12 08:00:26;;;;;;;9.20;2.33;;;;;;;15.98;71.33;101625.47;5221794;28;20037;-73
2022/10/12 08:02:57;;;;;;;11.77;2.10;;;;;;;16.41;68.47;101635.97;5221392;28;20283;-73
2022/10/12 08:05:28;;;;;;;8.40;2.30;;;;;;;16.92;65.88;101629.28;5221799;28;20079;-73
2022/10/12 08:07:59;;;;;;;11.23;2.50;;;;;;;16.79;68.21;101629.91;5221022;28;20111;-73
2022/10/12 08:10:29;;;;;;;10.07;2.15;;;;;;;15.26;74.41;101636.25;5203069;28;20776;-73
2022/10/12 08:12:59;;;;;;;9.83;2.00;;;;;;;17.18;70.23;101626.31;5220967;28;20534;-73
2022/10/12 08:15:29;;;;;;;7.60;1.97;;;;;;;17.64;67.96;101625.91;5220972;28;20287;-73
2022/10/12 08:18:00;;;;;;;8.77;2.53;;;;;;;18.24;65.16;101628.22;5220921;28;20278;-73
2022/10/12 08:20:30;;;;;;;12.18;2.25;;;;;;;17.85;68.42;101621.41;5221067;28;20040;-73
2022/10/12 08:23:00;;;;;;;6.72;2.30;;;;;;;18.67;65.49;101621.63;5221257;28;20501;-73
2022/10/12 08:25:32;;;;;;;9.60;1.97;;;;;;;18.36;66.91;101622.31;5221184;28;20040;-73
2022/10/12 08:28:04;;;;;;;9.35;2.30;;;;;;;18.26;67.08;101617.53;5202709;28;20336;-73
2022/10/12 08:30:34;;;;;;;10.45;2.08;;;;;;;17.07;71.39;101628.59;5221001;28;20638;-73
2022/10/12 08:33:04;;;;;;;7.05;2.15;;;;;;;16.07;76.77;101632.16;5220818;28;20033;-73
2022/10/12 08:35:37;;;;;;;7.97;1.80;;;;;;;16.21;78.19;101628.00;5220802;28;20033;-73
2022/10/12 08:38:10;;;;;;;9.85;2.05;;;;;;;16.23;76.95;101625.31;5220625;28;20366;-72
2022/10/12 08:40:55;;;;;;;7.55;1.90;;;;;;;17.50;72.70;101614.28;5220416;28;20490;-73
2022/10/12 08:43:55;;;;;;;7.10;1.65;;;;;;;17.75;71.33;101620.13;5220264;28;20533;-73
2022/10/12 08:46:26;;;;;;;9.38;1.92;;;;;;;18.00;70.24;101612.72;5216375;28;20032;-72
2022/10/12 08:49:05;;;;;;;10.27;2.33;;;;;;;18.45;67.22;101613.94;5219933;28;20024;-73
2022/10/12 08:51:50;;;;;;;6.22;1.70;;;;;;;18.03;68.86;101608.09;5219580;28;20032;-73
2022/10/12 08:54:40;;;;;;;7.85;1.88;;;;;;;17.23;72.14;101620.81;5217246;28;20063;-72
2022/10/12 08:57:16;;;;;;;7.43;2.13;;;;;;;16.32;75.14;101631.06;5220079;28;20070;-72
2022/10/12 08:59:46;;;;;;;11.38;2.20;;;;;;;15.59;77.41;101627.09;5216661;28;20288;-72
2022/10/12 09:02:46;;;;;;;8.98;2.05;;;;;;;15.40;78.55;101620.78;5219946;28;20021;-72
2022/10/12 09:05:32;;;;;;;9.80;2.00;;;;;;;15.04;80.53;101616.03;5219168;28;20032;-72
2022/10/12 09:08:08;;;;;;;10.80;2.15;;;;;;;14.95;80.62;101626.88;5219575;28;20028;-72
2022/10/12 09:10:45;;;;;;;11.30;1.60;;;;;;;14.97;79.73;101625.94;5220881;28;20107;-72
2022/10/12 09:13:57;;;;;;;8.13;1.60;;;;;;;15.03;78.12;101625.69;5218800;28;20024;-72
2022/10/12 09:16:33;;;;;;;14.02;1.48;;;;;;;15.24;77.17;101630.19;5163054;28;20048;-72
2022/10/12 09:19:17;;;;;;;10.90;2.22;;;;;;;14.69;79.97;101634.88;5219373;28;20111;-72
2022/10/12 09:21:49;;;;;;;7.82;1.67;;;;;;;14.84;79.11;101635.19;5216275;28;20485;-73
2022/10/12 09:24:25;;;;;;;9.20;1.52;;;;;;;14.95;78.24;101632.16;5220107;28;20041;-72
2022/10/12 09:27:01;;;;;;;11.35;2.22;;;;;;;15.09;76.96;101632.50;5220368;28;20027;-72
2022/10/12 09:29:32;;;;;;;6.82;1.70;;;;;;;15.06;76.56;101630.88;5220016;28;20029;-73
2022/10/12 09:32:21;;;;;;;8.90;1.70;;;;;;;14.73;78.55;101628.59;5219973;28;20032;-72
2022/10/12 09:34:52;;;;;;;8.70;1.63;;;;;;;14.70;78.12;101635.72;5216504;28;20181;-72
2022/10/12 09:37:27;;;;;;;8.63;1.92;;;;;;;14.90;78.68;101634.09;5201405;28;20067;-72
2022/10/12 09:39:58;;;;;;;9.60;1.55;;;;;;;15.12;77.90;101628.00;5219080;28;20100;-72
2022/10/12 09:42:29;;;;;;;7.32;1.55;;;;;;;15.24;76.45;101616.13;5200909;28;20119;-72
2022/10/12 09:45:13;;;;;;;10.45;1.55;;;;;;;15.19;77.64;101620.72;5219563;28;20029;-72
2022/10/12 09:48:16;;;;;;;8.07;1.60;;;;;;;15.12;76.58;101622.72;5219252;28;20401;-72
2022/10/12 09:50:54;;;;;;;11.75;1.40;;;;;;;15.15;77.58;101619.97;5219762;28;20021;-72
2022/10/12 09:53:30;;;;;;;10.80;1.88;;;;;;;15.07;78.15;101618.56;5219898;28;20405;-72
2022/10/12 09:56:11;;;;;;;11.73;2.33;;;;;;;15.15;77.04;101614.72;5220070;28;20025;-72
2022/10/12 09:58:50;;;;;;;10.13;2.00;;;;;;;15.15;76.95;101612.06;5219897;28;20033;-73
2022/10/12 10:01:28;;;;;;;10.75;1.80;;;;;;;15.20;76.43;101614.53;5218485;28;20259;-72
2022/10/12 10:04:05;;;;;;;9.23;1.50;;;;;;;15.25;75.03;101609.94;5223060;28;20617;-72
2022/10/12 10:06:42;;;;;;;11.85;1.90;;;;;;;15.08;73.83;101613.25;5223297;28;20510;-73
2022/10/12 10:09:32;;;;;;;9.85;1.38;;;;;;;15.04;75.89;101605.50;5223629;28;20025;-72
2022/10/12 10:12:21;;;;;;;14.70;2.03;;;;;;;15.08;76.08;101607.97;5222334;28;20422;-72
2022/10/12 10:14:55;;;;;;;8.80;1.75;;;;;;;14.92;73.64;101601.56;5220993;28;20025;-72
2022/10/12 10:17:28;;;;;;;11.98;2.45;;;;;;;14.99;75.40;101605.66;5223597;28;20121;-72
2022/10/12 10:20:02;;;;;;;10.63;1.95;;;;;;;14.91;74.73;101599.84;5223507;28;20061;-72
2022/10/12 10:22:32;;;;;;;12.82;1.85;;;;;;;14.95;74.86;101590.91;5223525;28;20510;-72
2022/10/12 10:25:03;;;;;;;9.70;1.77;;;;;;;15.04;75.27;101592.34;5223530;28;20044;-72
2022/10/12 10:27:38;;;;;;;12.20;1.75;;;;;;;14.90;73.21;101587.59;5223589;28;20039;-72
2022/10/12 10:30:15;;;;;;;12.05;1.77;;;;;;;14.81;73.65;101586.19;5223443;28;20074;-72
2022/10/12 10:32:46;;;;;;;13.27;1.50;;;;;;;14.89;74.03;101585.00;5205378;28;20036;-72
2022/10/12 10:35:20;;;;;;;10.70;2.00;;;;;;;15.01;75.15;101581.94;5222714;28;20244;-73
2022/10/12 10:37:55;;;;;;;9.73;1.67;;;;;;;14.68;74.75;101577.91;5222943;28;20024;-72
2022/10/12 10:40:29;;;;;;;11.35;1.73;;;;;;;14.72;74.99;101578.63;5223253;28;20035;-72
2022/10/12 10:43:05;;;;;;;7.22;1.38;;;;;;;14.97;74.38;101581.16;5223119;28;20059;-73
2022/10/12 10:45:48;;;;;;;10.52;1.80;;;;;;;15.12;73.59;101572.69;5223139;28;20041;-73
2022/10/12 10:48:22;;;;;;;9.02;1.65;;;;;;;15.08;73.34;101578.13;5218106;28;20526;-71
2022/10/12 10:50:59;;;;;;;9.70;1.73;;;;;;;14.93;73.83;101571.69;5222711;28;20082;-71
2022/10/12 10:53:42;;;;;;;6.15;1.52;;;;;;;14.97;72.95;101572.41;5222777;28;20049;-72
2022/10/12 10:56:20;;;;;;;9.77;1.60;;;;;;;15.05;74.34;101573.81;5222360;28;20107;-71
2022/10/12 10:58:52;;;;;;;10.05;1.65;;;;;;;15.13;71.54;101577.03;5219000;28;20040;-72
2022/10/12 11:01:48;;;;;;;7.82;1.58;;;;;;;15.26;72.88;101577.44;5222352;28;20029;-72
2022/10/12 11:04:21;;;;;;;;;;;;;;;15.26;73.26;101573.03;5216062;28;20481;-72
2022/10/12 11:07:03;;;;;;;10.60;1.52;;;;;;;15.04;71.88;101573.91;5222072;28;19913;-73
2022/10/12 11:09:41;;;;;;;10.88;2.00;;;;;;;15.14;72.16;101573.50;5222322;28;20033;-72
2022/10/12 11:12:22;;;;;;;10.70;1.33;;;;;;;15.29;72.65;101559.78;5221651;28;20504;-72
2022/10/12 11:14:58;;;;;;;7.30;1.40;;;;;;;15.28;70.11;101563.28;5219491;28;20513;-72
2022/10/12 11:17:42;;;;;;;8.82;1.40;;;;;;;15.22;70.11;101549.50;5221447;28;20029;-72
2022/10/12 11:20:41;;;;;;;10.55;1.77;;;;;;;15.25;71.21;101549.38;5221590;28;20040;-72
2022/10/12 11:23:14;;;;;;;7.88;1.55;;;;;;;15.27;70.96;101543.13;5221525;28;20025;-72
2022/10/12 11:26:12;;;;;;;8.52;1.35;;;;;;;15.29;70.99;101543.97;5221931;28;20037;-72
2022/10/12 11:28:43;;;;;;;7.45;1.50;;;;;;;15.43;72.35;101532.88;5221605;28;20260;-72
2022/10/12 11:31:31;;;;;;;6.63;1.27;;;;;;;15.31;70.69;101528.94;5221727;28;20033;-72
2022/10/12 11:34:07;;;;;;;10.57;2.00;;;;;;;15.28;70.57;101526.41;5219326;28;20478;-72
2022/10/12 11:36:38;;;;;;;;;;;;;;;15.30;72.97;101527.25;5222205;28;20037;-73
2022/10/12 11:39:19;;;;;;;11.35;1.58;;;;;;;15.29;71.09;101522.88;5221788;28;20313;-72
2022/10/12 11:41:54;;;;;;;9.40;1.63;;;;;;;15.31;71.67;101526.31;5216210;28;20052;-72
2022/10/12 11:44:46;;;;;;;9.90;1.45;;;;;;;15.46;73.33;101519.56;5221069;28;20037;-73
2022/10/12 11:47:22;;;;;;;10.20;1.60;;;;;;;15.44;72.45;101517.00;5217444;28;20041;-72
2022/10/12 11:50:19;;;;;;;5.47;1.30;;;;;;;15.43;71.76;101515.31;5220710;28;20040;-73
2022/10/12 11:52:52;;;;;;;10.13;1.50;;;;;;;15.52;71.15;101517.53;5200202;28;20024;-72
2022/10/12 11:55:41;;;;;;;7.38;1.50;;;;;;;15.47;71.57;101510.75;5221387;28;20037;-73
2022/10/12 11:58:24;;;;;;;8.57;1.40;;;;;;;15.41;72.11;101503.97;5220961;28;20096;-71